Time;durP1;ratioP1;P1;durP2;ratioP2;P2;SDS_P1;SDS_P2;PMS_P1;PMS_P2;Temp;Humidity;BMP_temperature;BMP_pressure;BME280_temperature;BME280_humidity;BME280_pressure;Samples;Min_cycle;Max_cycle;Signal;HPM_P1;HPM_P2
2021/04/05 00:00:38;;;;;;;5.15;4.65;;;20.40;38.60;;;;;;5019290;28;20409;-71
2021/04/05 00:03:05;;;;;;;5.20;4.50;;;20.40;38.60;;;;;;5025109;28;20430;-75
2021/04/05 00:05:32;;;;;;;6.85;4.60;;;20.40;38.70;;;;;;5023075;28;20410;-72
2021/04/05 00:07:58;;;;;;;8.95;5.32;;;20.40;38.90;;;;;;5020603;28;20469;-74
2021/04/05 00:10:25;;;;;;;7.18;5.25;;;20.30;38.80;;;;;;5024866;28;20992;-76
2021/04/05 00:12:52;;;;;;;7.00;4.30;;;20.30;38.90;;;;;;5022213;28;20456;-73
2021/04/05 00:15:18;;;;;;;8.32;4.50;;;20.30;39.00;;;;;;5016445;28;20848;-72
2021/04/05 00:17:45;;;;;;;8.60;4.60;;;20.30;39.20;;;;;;5020219;28;20420;-74
2021/04/05 00:20:13;;;;;;;8.23;4.88;;;20.30;39.20;;;;;;5022011;28;20419;-75
2021/04/05 00:22:40;;;;;;;5.63;5.10;;;20.30;39.20;;;;;;5021068;28;20465;-75
2021/04/05 00:25:07;;;;;;;5.63;4.50;;;20.30;39.10;;;;;;5021995;28;20961;-73
2021/04/05 00:27:34;;;;;;;8.63;5.00;;;20.30;39.10;;;;;;5001360;28;20403;-74
2021/04/05 00:30:00;;;;;;;8.65;4.60;;;20.30;39.10;;;;;;5023014;28;20494;-75
2021/04/05 00:32:26;;;;;;;6.18;4.95;;;20.30;39.00;;;;;;5021196;28;20428;-73
2021/04/05 00:34:53;;;;;;;5.30;4.80;;;20.30;38.90;;;;;;5021207;28;20434;-73
2021/04/05 00:37:19;;;;;;;8.20;4.68;;;20.30;38.90;;;;;;5021258;28;20425;-75
2021/04/05 00:39:45;;;;;;;8.23;4.70;;;20.30;39.10;;;;;;5019489;28;20483;-73
2021/04/05 00:42:11;;;;;;;6.13;4.90;;;20.30;39.10;;;;;;5022746;28;20426;-75
2021/04/05 00:44:38;;;;;;;5.30;4.75;;;20.30;39.10;;;;;;5019749;28;20411;-74
2021/04/05 00:47:07;;;;;;;4.93;4.18;;;20.30;39.10;;;;;;5022000;28;20423;-74
2021/04/05 00:49:33;;;;;;;7.72;4.75;;;20.20;39.00;;;;;;5017080;28;21178;-74
2021/04/05 00:52:00;;;;;;;7.10;5.13;;;20.20;39.10;;;;;;5021239;28;21719;-74
2021/04/05 00:54:26;;;;;;;7.65;4.78;;;20.20;39.00;;;;;;5016375;28;20463;-74
2021/04/05 00:56:52;;;;;;;5.50;4.90;;;20.20;39.00;;;;;;5026194;28;20545;-74
2021/04/05 00:59:19;;;;;;;6.25;4.20;;;20.20;39.20;;;;;;5025548;28;20415;-74
2021/04/05 01:01:45;;;;;;;6.43;4.70;;;20.20;39.00;;;;;;5021582;28;20463;-73
2021/04/05 01:04:11;;;;;;;5.68;4.47;;;20.20;39.10;;;;;;5021676;28;20488;-74
2021/04/05 01:06:37;;;;;;;5.60;5.10;;;20.20;39.20;;;;;;5022531;28;20405;-73
2021/04/05 01:09:05;;;;;;;5.70;4.22;;;20.20;39.00;;;;;;5022778;28;20438;-77
2021/04/05 01:11:31;;;;;;;7.50;4.68;;;20.20;39.00;;;;;;5018867;28;21024;-75
2021/04/05 01:13:58;;;;;;;6.27;4.57;;;20.20;39.20;;;;;;5019333;28;20421;-73
2021/04/05 01:16:24;;;;;;;5.57;4.60;;;20.20;39.10;;;;;;5022914;28;20430;-73
2021/04/05 01:18:51;;;;;;;5.22;4.60;;;20.20;39.10;;;;;;5020002;28;20431;-74
2021/04/05 01:21:17;;;;;;;6.60;4.55;;;20.30;39.20;;;;;;5023242;28;20421;-74
2021/04/05 01:23:44;;;;;;;6.37;5.00;;;20.20;39.00;;;;;;5021747;28;20413;-74
2021/04/05 01:26:10;;;;;;;4.60;4.20;;;20.30;39.10;;;;;;5019143;28;20423;-73
2021/04/05 01:28:36;;;;;;;8.32;4.55;;;20.30;39.00;;;;;;5020823;28;20423;-73
2021/04/05 01:31:02;;;;;;;7.03;4.57;;;20.30;38.90;;;;;;5019367;28;20403;-74
2021/04/05 01:33:30;;;;;;;6.13;4.10;;;20.30;39.10;;;;;;5019107;28;20417;-73
2021/04/05 01:35:57;;;;;;;7.13;4.50;;;20.20;39.00;;;;;;5031504;28;20433;-74
2021/04/05 01:38:24;;;;;;;5.17;4.23;;;20.20;39.80;;;;;;5021536;28;20472;-72
2021/04/05 01:40:52;;;;;;;6.78;4.70;;;20.20;38.90;;;;;;5018281;28;20458;-73
2021/04/05 01:43:18;;;;;;;7.53;4.80;;;20.20;39.10;;;;;;5022132;28;20416;-75
2021/04/05 01:45:45;;;;;;;6.05;4.22;;;20.20;38.90;;;;;;5024011;28;20460;-76
2021/04/05 01:48:13;;;;;;;4.57;4.15;;;20.20;39.00;;;;;;5024252;28;20422;-76
2021/04/05 01:50:39;;;;;;;5.60;4.60;;;20.20;39.00;;;;;;5019619;28;20419;-74
2021/04/05 01:53:06;;;;;;;7.88;4.70;;;20.20;39.00;;;;;;5021272;28;20937;-74
2021/04/05 01:55:33;;;;;;;4.80;4.40;;;20.20;39.10;;;;;;5020987;28;20902;-73
2021/04/05 01:58:00;;;;;;;4.85;4.20;;;20.20;38.90;;;;;;5019206;28;20411;-73
2021/04/05 02:00:27;;;;;;;5.03;4.25;;;20.20;39.10;;;;;;5017751;28;20430;-72
2021/04/05 02:02:54;;;;;;;6.10;4.38;;;20.10;39.00;;;;;;5021214;28;20440;-73
2021/04/05 02:05:21;;;;;;;7.50;4.17;;;20.10;39.20;;;;;;5022267;28;21504;-73
2021/04/05 02:07:47;;;;;;;5.30;3.60;;;20.10;39.10;;;;;;5024032;28;20425;-73
2021/04/05 02:10:17;;;;;;;4.75;3.92;;;20.10;39.10;;;;;;5024318;28;20409;-73
2021/04/05 02:12:44;;;;;;;7.28;3.60;;;20.10;39.20;;;;;;5024675;28;20429;-73
2021/04/05 02:15:12;;;;;;;5.30;4.20;;;20.10;39.30;;;;;;5020623;28;20434;-73
2021/04/05 02:17:38;;;;;;;5.18;4.18;;;20.20;40.20;;;;;;5023245;28;20453;-73
2021/04/05 02:20:07;;;;;;;6.07;4.10;;;20.20;39.30;;;;;;5019261;28;20425;-74
2021/04/05 02:22:34;;;;;;;6.40;4.18;;;20.20;40.10;;;;;;5027287;28;20445;-72
2021/04/05 02:25:00;;;;;;;6.72;4.07;;;20.20;39.30;;;;;;5023057;28;20426;-73
2021/04/05 02:27:26;;;;;;;5.82;3.85;;;20.20;39.30;;;;;;5026819;28;20414;-70
2021/04/05 02:29:52;;;;;;;4.53;3.80;;;20.20;39.10;;;;;;5021842;28;20826;-72
2021/04/05 02:32:19;;;;;;;5.70;4.35;;;20.20;39.10;;;;;;5019891;28;20427;-73
2021/04/05 02:34:46;;;;;;;6.10;4.35;;;20.20;39.30;;;;;;5025107;28;20507;-73
2021/04/05 02:37:13;;;;;;;4.43;3.60;;;20.20;39.30;;;;;;5023538;28;20423;-72
2021/04/05 02:39:39;;;;;;;6.68;4.07;;;20.20;39.40;;;;;;5018755;28;20484;-74
2021/04/05 02:42:06;;;;;;;7.30;3.85;;;20.20;39.40;;;;;;5023806;28;20411;-74
2021/04/05 02:44:32;;;;;;;9.20;4.80;;;20.20;39.40;;;;;;5024470;28;20768;-74
2021/04/05 02:46:59;;;;;;;7.20;3.90;;;20.20;39.30;;;;;;5026161;28;20419;-74
2021/04/05 02:49:26;;;;;;;6.50;4.00;;;20.30;39.20;;;;;;5025231;28;21480;-75
2021/04/05 02:51:52;;;;;;;7.40;4.20;;;20.30;39.30;;;;;;5024812;28;20425;-73
2021/04/05 02:54:18;;;;;;;6.47;3.95;;;20.30;39.10;;;;;;5022598;28;20440;-75
2021/04/05 02:56:45;;;;;;;4.28;3.80;;;20.30;39.30;;;;;;5026297;28;20420;-73
2021/04/05 02:59:11;;;;;;;6.93;4.00;;;20.30;39.20;;;;;;5019187;28;21107;-73
2021/04/05 03:01:39;;;;;;;9.25;4.20;;;20.30;39.30;;;;;;5022198;28;21516;-72
2021/04/05 03:04:05;;;;;;;6.00;3.77;;;20.20;39.30;;;;;;5003296;28;20419;-72
2021/04/05 03:06:32;;;;;;;5.32;3.72;;;20.30;39.40;;;;;;5023295;28;20402;-73
2021/04/05 03:09:00;;;;;;;4.78;3.13;;;20.30;39.30;;;;;;5022201;28;20414;-75
2021/04/05 03:11:26;;;;;;;4.30;3.92;;;20.30;39.20;;;;;;5023144;28;20428;-73
2021/04/05 03:13:53;;;;;;;5.60;3.72;;;20.30;39.20;;;;;;5024657;28;20440;-74
2021/04/05 03:16:20;;;;;;;6.00;3.42;;;20.40;39.10;;;;;;5021466;28;20458;-74
2021/04/05 03:18:47;;;;;;;9.05;3.72;;;20.40;38.90;;;;;;5023280;28;20427;-72
2021/04/05 03:21:13;;;;;;;6.13;3.70;;;20.50;38.60;;;;;;5020524;28;21233;-72
2021/04/05 03:23:40;;;;;;;6.15;3.92;;;20.50;38.60;;;;;;5023745;28;21105;-74
2021/04/05 03:26:06;;;;;;;9.27;4.38;;;20.50;38.70;;;;;;5020388;28;20489;-73
2021/04/05 03:28:32;;;;;;;6.38;3.78;;;20.50;38.80;;;;;;5023904;28;20430;-73
2021/04/05 03:31:01;;;;;;;8.77;3.77;;;20.50;38.80;;;;;;5019292;28;20468;-74
2021/04/05 03:33:30;;;;;;;6.30;3.60;;;20.40;38.80;;;;;;5027492;28;20437;-70
2021/04/05 03:36:00;;;;;;;6.80;3.90;;;20.50;39.00;;;;;;5024578;28;20939;-73
2021/04/05 03:38:26;;;;;;;7.15;3.97;;;20.40;39.00;;;;;;5022908;28;20419;-74
2021/04/05 03:40:53;;;;;;;6.80;3.60;;;20.40;39.10;;;;;;5019114;28;20411;-73
2021/04/05 03:43:21;;;;;;;6.22;3.80;;;20.50;39.20;;;;;;5022943;28;20438;-75
2021/04/05 03:45:49;;;;;;;4.45;3.72;;;20.50;39.30;;;;;;5023948;28;20483;-72
2021/04/05 03:48:19;;;;;;;5.43;3.30;;;20.50;39.30;;;;;;5025256;28;20417;-73
2021/04/05 03:50:48;;;;;;;6.68;3.83;;;20.50;39.40;;;;;;5022238;28;20513;-75
2021/04/05 03:53:18;;;;;;;5.53;3.70;;;20.40;39.40;;;;;;5017725;28;20419;-75
2021/04/05 03:55:46;;;;;;;5.25;3.53;;;20.50;39.40;;;;;;5033840;28;20421;-73
2021/04/05 03:58:14;;;;;;;5.53;3.10;;;20.50;39.50;;;;;;5024635;28;20429;-74
2021/04/05 04:00:40;;;;;;;7.90;3.00;;;20.50;39.40;;;;;;5014690;28;20429;-72
2021/04/05 04:03:07;;;;;;;3.67;3.13;;;20.50;39.50;;;;;;5024700;28;20484;-71
2021/04/05 04:05:37;;;;;;;3.70;3.00;;;20.50;39.50;;;;;;5020098;28;20414;-71
2021/04/05 04:08:09;;;;;;;4.80;2.80;;;20.50;39.40;;;;;;5007995;28;20426;-74
2021/04/05 04:10:35;;;;;;;4.75;3.13;;;20.50;39.60;;;;;;5023173;28;20411;-73
2021/04/05 04:13:04;;;;;;;4.95;2.90;;;20.50;39.60;;;;;;5012803;28;20424;-73
2021/04/05 04:15:31;;;;;;;2.70;2.50;;;20.50;39.80;;;;;;5025653;28;21081;-74
2021/04/05 04:17:57;;;;;;;3.35;2.55;;;20.50;39.90;;;;;;5019515;28;21584;-74
2021/04/05 04:20:24;;;;;;;4.00;2.30;;;20.50;40.00;;;;;;5025359;28;20425;-73
2021/04/05 04:22:50;;;;;;;2.30;2.00;;;20.50;39.90;;;;;;5023679;28;20425;-74
2021/04/05 04:25:16;;;;;;;2.67;2.10;;;20.50;40.00;;;;;;5023123;28;20425;-73
2021/04/05 04:27:43;;;;;;;4.15;2.17;;;20.50;40.00;;;;;;5022831;28;20415;-73
2021/04/05 04:30:10;;;;;;;3.55;1.90;;;20.50;40.10;;;;;;5020479;28;20476;-75
2021/04/05 04:32:37;;;;;;;3.10;1.88;;;20.50;40.00;;;;;;5021326;28;21551;-73
2021/04/05 04:35:04;;;;;;;3.50;1.60;;;20.50;40.00;;;;;;5017249;28;20421;-72
2021/04/05 04:37:30;;;;;;;2.10;1.45;;;20.50;40.00;;;;;;5031800;28;20430;-73
2021/04/05 04:39:57;;;;;;;1.70;1.50;;;20.50;39.90;;;;;;5020922;28;20443;-74
2021/04/05 04:42:24;;;;;;;1.63;1.52;;;20.50;39.90;;;;;;5018097;28;20490;-74
2021/04/05 04:44:50;;;;;;;3.10;1.20;;;20.50;39.90;;;;;;5024241;28;20423;-74
2021/04/05 04:47:16;;;;;;;2.53;1.30;;;20.50;40.00;;;;;;5025588;28;20425;-72
2021/04/05 04:49:46;;;;;;;1.60;1.17;;;20.50;39.90;;;;;;5023807;28;20422;-73
2021/04/05 04:52:12;;;;;;;1.40;1.13;;;20.50;39.90;;;;;;5012762;28;20766;-72
2021/04/05 04:54:38;;;;;;;1.95;0.93;;;20.50;39.90;;;;;;5030633;28;20813;-74
2021/04/05 04:57:05;;;;;;;1.52;0.82;;;20.50;39.90;;;;;;5005039;28;20842;-75
2021/04/05 04:59:33;;;;;;;1.70;1.00;;;20.50;39.80;;;;;;5021919;28;20957;-73
2021/04/05 05:01:59;;;;;;;1.00;0.80;;;20.50;39.80;;;;;;5021988;28;20444;-73
2021/04/05 05:04:26;;;;;;;1.63;0.90;;;20.50;39.80;;;;;;5013775;28;20821;-75
2021/04/05 05:06:55;;;;;;;1.08;0.80;;;20.50;39.80;;;;;;5034150;28;20427;-72
2021/04/05 05:09:21;;;;;;;1.75;0.85;;;20.50;39.80;;;;;;5021388;28;20414;-73
2021/04/05 05:11:47;;;;;;;0.70;0.70;;;20.50;39.90;;;;;;5017372;28;20423;-73
2021/04/05 05:14:13;;;;;;;1.95;1.00;;;20.50;39.90;;;;;;5021058;28;20426;-73
2021/04/05 05:16:40;;;;;;;1.90;0.90;;;20.50;39.90;;;;;;5020373;28;20430;-74
2021/04/05 05:19:06;;;;;;;1.10;0.95;;;20.50;40.00;;;;;;5019958;28;20456;-73
2021/04/05 05:21:34;;;;;;;1.50;0.80;;;20.50;40.00;;;;;;5022587;28;20762;-72
2021/04/05 05:24:03;;;;;;;1.00;0.90;;;20.50;40.00;;;;;;5019534;28;20822;-74
2021/04/05 05:26:29;;;;;;;1.10;1.00;;;20.50;40.20;;;;;;5023805;28;20415;-76
2021/04/05 05:28:55;;;;;;;1.10;0.70;;;20.50;39.90;;;;;;5019390;28;20428;-73
2021/04/05 05:31:22;;;;;;;1.20;1.00;;;20.50;39.90;;;;;;5023918;28;20420;-73
2021/04/05 05:33:48;;;;;;;1.20;1.10;;;20.50;40.60;;;;;;5020988;28;20425;-74
2021/04/05 05:36:15;;;;;;;1.60;0.80;;;20.50;39.80;;;;;;5025283;28;20463;-76
2021/04/05 05:38:41;;;;;;;1.50;0.90;;;20.50;39.70;;;;;;5017785;28;20487;-75
2021/04/05 05:41:18;;;;;;;1.40;1.00;;;20.50;39.70;;;;;;5020543;28;20473;-72
2021/04/05 05:43:46;;;;;;;1.20;0.80;;;20.50;39.70;;;;;;5026451;28;20413;-76
2021/04/05 05:46:22;;;;;;;1.70;1.00;;;20.50;39.70;;;;;;5026116;28;20958;-75
2021/04/05 05:48:55;;;;;;;1.33;0.80;;;20.50;39.70;;;;;;5024642;28;21492;-75
2021/04/05 05:51:28;;;;;;;1.58;0.82;;;20.50;39.70;;;;;;5021872;28;20413;-74
2021/04/05 05:54:00;;;;;;;1.40;0.90;;;20.50;39.70;;;;;;5022374;28;20438;-73
2021/04/05 05:56:43;;;;;;;1.15;0.80;;;20.50;39.60;;;;;;5025298;28;20863;-74
2021/04/05 05:59:15;;;;;;;2.80;0.88;;;20.50;39.50;;;;;;5020206;28;20494;-75
2021/04/05 06:01:47;;;;;;;2.60;1.17;;;20.50;39.40;;;;;;5026496;28;20420;-75
2021/04/05 06:04:40;;;;;;;1.90;0.90;;;20.60;39.40;;;;;;5036323;28;20463;-73
2021/04/05 06:07:08;;;;;;;2.58;1.25;;;20.60;39.40;;;;;;5011247;28;20415;-73
2021/04/05 06:09:40;;;;;;;3.05;1.10;;;20.60;39.40;;;;;;5016324;28;21182;-74
2021/04/05 06:12:08;;;;;;;4.35;1.10;;;20.50;39.40;;;;;;5008808;28;20833;-71
2021/04/05 06:14:44;;;;;;;1.85;1.00;;;20.50;39.40;;;;;;5022963;28;20961;-72
2021/04/05 06:17:15;;;;;;;3.10;0.83;;;20.50;39.60;;;;;;5015231;28;20463;-75
2021/04/05 06:19:47;;;;;;;2.15;1.08;;;20.50;39.60;;;;;;5025732;28;20499;-73
2021/04/05 06:22:19;;;;;;;3.80;0.90;;;20.50;39.60;;;;;;5027062;28;20422;-75
2021/04/05 06:24:52;;;;;;;2.90;0.90;;;20.40;39.60;;;;;;5023652;28;20913;-74
2021/04/05 06:27:24;;;;;;;1.85;0.90;;;20.40;39.60;;;;;;5019979;28;20429;-74
2021/04/05 06:30:01;;;;;;;1.27;0.90;;;20.40;39.60;;;;;;5023730;28;20477;-73
2021/04/05 06:32:34;;;;;;;1.98;0.90;;;20.40;39.60;;;;;;5025325;28;20936;-73
2021/04/05 06:35:34;;;;;;;0.80;0.60;;;20.40;39.50;;;;;;5028712;28;20421;-74
2021/04/05 06:38:01;;;;;;;2.33;0.90;;;20.40;39.40;;;;;;5009362;28;20926;-74
2021/04/05 06:40:29;;;;;;;1.42;1.10;;;20.40;39.50;;;;;;5025132;28;20419;-75
2021/04/05 06:43:13;;;;;;;3.72;0.80;;;20.40;39.60;;;;;;5024555;28;20420;-75
2021/04/05 06:45:54;;;;;;;1.40;0.80;;;20.40;39.60;;;;;;5021313;28;20477;-74
2021/04/05 06:48:43;;;;;;;1.63;0.70;;;20.40;39.40;;;;;;5019999;28;20417;-73
2021/04/05 06:51:13;;;;;;;3.00;0.80;;;20.40;39.40;;;;;;5011617;28;20477;-74
2021/04/05 06:53:50;;;;;;;0.70;0.70;;;20.40;39.40;;;;;;5022696;28;20446;-76
2021/04/05 06:56:22;;;;;;;3.70;1.00;;;20.40;39.40;;;;;;5024763;28;20432;-73
2021/04/05 06:59:01;;;;;;;1.50;0.70;;;20.40;39.40;;;;;;5020083;28;20471;-73
2021/04/05 07:01:45;;;;;;;2.92;1.10;;;20.30;39.50;;;;;;5024957;28;20912;-74
2021/04/05 07:04:48;;;;;;;1.10;0.90;;;20.30;39.40;;;;;;5017900;28;20977;-74
2021/04/05 07:07:18;;;;;;;0.85;0.80;;;20.30;39.50;;;;;;5019716;28;20417;-75
2021/04/05 07:09:48;;;;;;;1.13;0.70;;;20.30;39.40;;;;;;5023754;28;20430;-74
2021/04/05 07:12:36;;;;;;;2.17;0.70;;;20.30;39.40;;;;;;5023778;28;20421;-75
2021/04/05 07:15:16;;;;;;;2.35;0.60;;;20.30;39.40;;;;;;5025719;28;20486;-75
2021/04/05 07:17:48;;;;;;;1.67;0.90;;;20.30;39.50;;;;;;5030254;28;20413;-75
2021/04/05 07:20:15;;;;;;;1.40;0.80;;;20.30;39.40;;;;;;5052167;28;20446;-73
2021/04/05 07:22:52;;;;;;;2.70;1.00;;;20.30;39.40;;;;;;5037287;28;20422;-73
2021/04/05 07:25:22;;;;;;;1.17;0.87;;;20.30;39.40;;;;;;5027454;28;20426;-73
2021/04/05 07:27:55;;;;;;;2.08;1.02;;;20.30;39.40;;;;;;5018746;28;20518;-73
2021/04/05 07:30:25;;;;;;;4.35;0.95;;;20.30;39.50;;;;;;5023475;28;20460;-75
2021/04/05 07:33:00;;;;;;;1.50;0.70;;;20.30;39.50;;;;;;5020490;28;20537;-74
2021/04/05 07:35:29;;;;;;;2.75;1.00;;;20.20;39.40;;;;;;5013443;28;20790;-73
2021/04/05 07:38:02;;;;;;;2.58;0.90;;;20.30;39.60;;;;;;5014706;28;20419;-72
2021/04/05 07:40:39;;;;;;;2.40;1.00;;;20.20;39.60;;;;;;5004898;28;20435;-72
2021/04/05 07:43:06;;;;;;;2.10;0.80;;;20.30;39.60;;;;;;5019762;28;20521;-73
2021/04/05 07:45:37;;;;;;;2.03;0.80;;;20.30;39.40;;;;;;5022437;28;20411;-72
2021/04/05 07:48:09;;;;;;;1.63;0.90;;;20.30;39.30;;;;;;5015819;28;21167;-73
2021/04/05 07:50:37;;;;;;;1.80;1.00;;;20.30;39.20;;;;;;5019860;28;20432;-75
2021/04/05 07:53:07;;;;;;;1.90;0.75;;;20.40;39.20;;;;;;5016123;28;20415;-73
2021/04/05 07:55:34;;;;;;;3.58;0.90;;;20.40;39.20;;;;;;5027923;28;20419;-73
2021/04/05 07:58:01;;;;;;;3.30;0.90;;;20.40;38.90;;;;;;5024497;28;20494;-74
2021/04/05 08:00:30;;;;;;;2.20;0.80;;;20.40;39.10;;;;;;5024269;28;20425;-76
2021/04/05 08:03:03;;;;;;;4.43;1.00;;;20.40;38.90;;;;;;5021623;28;20936;-73
2021/04/05 08:05:37;;;;;;;4.25;1.15;;;20.40;38.80;;;;;;5023333;28;20452;-73
2021/04/05 08:08:26;;;;;;;1.20;0.60;;;20.40;38.90;;;;;;5025507;28;20448;-72
2021/04/05 08:10:56;;;;;;;2.83;1.10;;;20.30;39.00;;;;;;5020824;28;20450;-75
2021/04/05 08:13:29;;;;;;;1.67;0.80;;;20.30;39.10;;;;;;5024393;28;20425;-74
2021/04/05 08:15:58;;;;;;;2.55;0.90;;;20.30;39.30;;;;;;5016892;28;20423;-75
2021/04/05 08:18:27;;;;;;;1.10;0.80;;;20.20;39.20;;;;;;5036049;28;21097;-74
2021/04/05 08:20:55;;;;;;;1.83;0.80;;;20.20;39.40;;;;;;5025360;28;20422;-73
2021/04/05 08:23:26;;;;;;;2.25;0.70;;;20.20;39.30;;;;;;5022369;28;20425;-74
2021/04/05 08:25:58;;;;;;;2.20;0.90;;;20.20;39.40;;;;;;5021738;28;20411;-73
2021/04/05 08:28:29;;;;;;;0.90;0.60;;;20.20;39.20;;;;;;5018950;28;20476;-75
2021/04/05 08:31:10;;;;;;;1.20;0.60;;;20.20;39.20;;;;;;5022863;28;20411;-75
2021/04/05 08:33:43;;;;;;;0.70;0.70;;;20.20;39.20;;;;;;5022531;28;20401;-76
2021/04/05 08:36:14;;;;;;;1.67;0.73;;;20.20;39.10;;;;;;5039899;28;20399;-74
2021/04/05 08:38:47;;;;;;;1.38;0.60;;;20.20;39.10;;;;;;5033662;28;21294;-78
2021/04/05 08:41:22;;;;;;;1.50;0.70;;;20.20;39.10;;;;;;5049887;28;20398;-72
2021/04/05 08:43:56;;;;;;;1.80;0.60;;;20.20;39.10;;;;;;5021031;28;20468;-74
2021/04/05 08:46:24;;;;;;;0.60;0.60;;;20.20;39.10;;;;;;5033863;28;20429;-74
2021/04/05 08:48:52;;;;;;;1.38;0.60;;;20.20;39.00;;;;;;5003507;28;20432;-72
2021/04/05 08:51:21;;;;;;;1.10;0.57;;;20.30;38.90;;;;;;5015859;28;20765;-75
2021/04/05 08:53:51;;;;;;;0.60;0.60;;;20.30;38.90;;;;;;5012503;28;20438;-73
2021/04/05 08:56:17;;;;;;;1.20;0.57;;;20.30;38.90;;;;;;5013755;28;20411;-72
2021/04/05 08:58:46;;;;;;;0.55;0.50;;;20.30;39.10;;;;;;5014611;28;20415;-72
2021/04/05 09:01:14;;;;;;;1.30;0.80;;;20.20;39.30;;;;;;4999258;28;20514;-71
2021/04/05 09:03:40;;;;;;;2.20;0.70;;;20.20;39.00;;;;;;5014049;28;20414;-74
2021/04/05 09:06:11;;;;;;;1.05;0.60;;;20.20;38.70;;;;;;4997898;28;20417;-72
2021/04/05 09:08:37;;;;;;;2.80;0.52;;;20.20;38.50;;;;;;5016405;28;20961;-72
2021/04/05 09:11:04;;;;;;;0.98;0.65;;;20.20;38.10;;;;;;5023508;28;21041;-72
2021/04/05 09:13:35;;;;;;;1.75;0.60;;;20.20;38.10;;;;;;5022818;28;20472;-72
2021/04/05 09:16:34;;;;;;;2.70;0.80;;;20.20;38.10;;;;;;5024362;28;20398;-72
2021/04/05 09:19:15;;;;;;;0.70;0.50;;;20.30;38.20;;;;;;4977043;28;20419;-73
2021/04/05 09:22:14;;;;;;;2.58;1.00;;;20.30;38.20;;;;;;5017053;28;20411;-72
2021/04/05 09:25:17;;;;;;;3.23;1.00;;;20.30;38.10;;;;;;5015903;28;20789;-74
2021/04/05 09:27:57;;;;;;;2.65;0.90;;;20.30;38.10;;;;;;4949208;28;20421;-74
2021/04/05 09:30:43;;;;;;;4.20;1.10;;;20.20;38.10;;;;;;4947421;28;20569;-74
2021/04/05 09:33:27;;;;;;;2.97;0.90;;;20.20;38.10;;;;;;4987854;28;20420;-75
2021/04/05 09:36:03;;;;;;;1.63;0.95;;;20.20;38.10;;;;;;5023057;28;20421;-72
2021/04/05 09:38:35;;;;;;;4.45;0.95;;;20.20;38.00;;;;;;5019635;28;20432;-73
2021/04/05 09:41:25;;;;;;;2.58;1.20;;;20.20;38.10;;;;;;5025009;28;20439;-75
2021/04/05 09:44:40;;;;;;;4.13;1.20;;;20.30;38.20;;;;;;5022638;28;20923;-73
2021/04/05 09:47:28;;;;;;;1.57;1.10;;;20.30;38.20;;;;;;4942247;28;20419;-75
2021/04/05 09:50:12;;;;;;;3.53;1.10;;;20.40;38.20;;;;;;5021992;28;20461;-74
2021/04/05 09:52:56;;;;;;;3.50;1.10;;;20.40;38.20;;;;;;5013823;28;20533;-72
2021/04/05 09:55:25;;;;;;;3.00;1.10;;;20.40;38.20;;;;;;5022636;28;20475;-72
2021/04/05 09:57:53;;;;;;;3.60;1.23;;;20.40;38.20;;;;;;5021104;28;20421;-73
2021/04/05 10:00:20;;;;;;;3.10;1.20;;;20.40;38.30;;;;;;5024889;28;20414;-75
2021/04/05 10:02:48;;;;;;;2.30;1.17;;;20.30;38.20;;;;;;5021086;28;20434;-71
2021/04/05 10:05:14;;;;;;;4.63;1.90;;;20.30;38.20;;;;;;5019015;28;20970;-72
2021/04/05 10:07:40;;;;;;;2.95;1.30;;;20.40;37.80;;;;;;5020882;28;20543;-72
2021/04/05 10:10:08;;;;;;;4.25;1.10;;;20.40;37.40;;;;;;5009302;28;20411;-73
2021/04/05 10:12:35;;;;;;;2.33;0.90;;;20.40;37.50;;;;;;5014844;28;20421;-73
2021/04/05 10:15:02;;;;;;;3.17;1.33;;;20.40;37.30;;;;;;5017323;28;20945;-75
2021/04/05 10:17:28;;;;;;;2.60;1.13;;;20.40;37.10;;;;;;5014418;28;20414;-75
2021/04/05 10:19:55;;;;;;;2.85;1.20;;;20.40;36.90;;;;;;5015258;28;21313;-74
2021/04/05 10:22:21;;;;;;;3.23;1.10;;;20.40;36.90;;;;;;5019867;28;21221;-73
2021/04/05 10:24:49;;;;;;;4.55;1.10;;;20.50;36.60;;;;;;5005277;28;21175;-72
2021/04/05 10:27:17;;;;;;;5.93;1.45;;;20.50;36.30;;;;;;5036264;28;20425;-72
2021/04/05 10:29:45;;;;;;;4.53;1.40;;;20.60;36.20;;;;;;5020908;28;20416;-74
2021/04/05 10:32:14;;;;;;;3.50;1.50;;;20.60;36.20;;;;;;5018965;28;20451;-76
2021/04/05 10:34:43;;;;;;;3.22;1.50;;;20.50;36.10;;;;;;5020481;28;20921;-73
2021/04/05 10:37:11;;;;;;;4.03;1.00;;;20.50;36.00;;;;;;5008337;28;20415;-76
2021/04/05 10:39:37;;;;;;;5.93;1.52;;;20.50;35.80;;;;;;5024261;28;20418;-74
2021/04/05 10:42:08;;;;;;;4.30;1.20;;;20.50;36.30;;;;;;5019012;28;21303;-75
2021/04/05 10:44:39;;;;;;;3.10;1.10;;;20.40;36.00;;;;;;5022778;28;20565;-73
2021/04/05 10:47:08;;;;;;;3.95;1.35;;;20.40;36.10;;;;;;5019589;28;20411;-78
2021/04/05 10:49:34;;;;;;;2.80;1.30;;;20.50;38.30;;;;;;5021915;28;20422;-77
2021/04/05 10:52:09;;;;;;;4.95;1.08;;;20.50;38.30;;;;;;5018740;28;20515;-77
2021/04/05 10:54:37;;;;;;;5.18;1.10;;;20.50;38.30;;;;;;5024684;28;20496;-75
2021/04/05 10:57:04;;;;;;;6.07;1.65;;;20.60;38.40;;;;;;5022775;28;20428;-74
2021/04/05 10:59:31;;;;;;;2.83;1.30;;;20.60;38.40;;;;;;5023860;28;20425;-75
2021/04/05 11:01:59;;;;;;;7.30;2.00;;;20.60;38.40;;;;;;5019798;28;20763;-73
2021/04/05 11:04:26;;;;;;;16.20;1.70;;;20.60;38.40;;;;;;5024849;28;20519;-72
2021/04/05 11:06:52;;;;;;;9.73;2.28;;;20.70;38.40;;;;;;5027968;28;20424;-74
2021/04/05 11:09:18;;;;;;;11.00;2.30;;;20.70;38.50;;;;;;5017154;28;20423;-73
2021/04/05 11:11:44;;;;;;;7.00;1.35;;;20.70;38.50;;;;;;5023176;28;20429;-75
2021/04/05 11:14:14;;;;;;;6.15;1.65;;;20.70;38.50;;;;;;5023339;28;20439;-72
2021/04/05 11:16:40;;;;;;;5.00;1.63;;;20.80;39.10;;;;;;5000050;28;20476;-75
2021/04/05 11:19:08;;;;;;;8.32;1.70;;;20.70;38.40;;;;;;5005643;28;20896;-73
2021/04/05 11:21:38;;;;;;;8.13;1.60;;;20.70;38.40;;;;;;5027234;28;20692;-74
2021/04/05 11:24:06;;;;;;;2.80;1.38;;;20.70;38.50;;;;;;5018052;28;20417;-74
2021/04/05 11:26:34;;;;;;;6.70;1.25;;;20.80;38.60;;;;;;5011543;28;20905;-74
2021/04/05 11:29:03;;;;;;;4.28;1.30;;;20.80;38.50;;;;;;5019894;28;20485;-74
2021/04/05 11:31:33;;;;;;;5.32;1.48;;;20.70;37.50;;;;;;5019335;28;20809;-75
2021/04/05 11:34:00;;;;;;;3.00;1.30;;;20.80;37.60;;;;;;5014531;28;20441;-71
2021/04/05 11:36:35;;;;;;;7.85;1.30;;;20.90;37.90;;;;;;5020058;28;20426;-73
2021/04/05 11:39:02;;;;;;;6.25;1.20;;;20.90;38.20;;;;;;5016662;28;20419;-75
2021/04/05 11:41:28;;;;;;;4.35;1.40;;;20.90;37.90;;;;;;5017027;28;20427;-71
2021/04/05 11:43:55;;;;;;;6.53;1.30;;;20.90;37.60;;;;;;5018609;28;20953;-73
2021/04/05 11:46:21;;;;;;;4.30;1.00;;;21.00;37.60;;;;;;5016303;28;20432;-72
2021/04/05 11:49:01;;;;;;;7.20;1.60;;;21.00;37.70;;;;;;5018485;28;20432;-73
2021/04/05 11:51:27;;;;;;;5.60;1.40;;;21.00;37.30;;;;;;5018890;28;20430;-74
2021/04/05 11:53:56;;;;;;;2.60;1.10;;;21.00;37.30;;;;;;5023757;28;20569;-72
2021/04/05 11:56:24;;;;;;;4.30;1.30;;;21.00;37.10;;;;;;5013647;28;20423;-74
2021/04/05 11:58:57;;;;;;;2.20;1.00;;;21.00;38.20;;;;;;5009232;28;20433;-72
2021/04/05 12:01:23;;;;;;;3.67;1.52;;;21.00;38.70;;;;;;5023232;28;20417;-74
2021/04/05 12:03:51;;;;;;;6.20;1.00;;;21.10;38.80;;;;;;5025202;28;21431;-74
2021/04/05 12:06:20;;;;;;;4.00;1.42;;;21.10;38.80;;;;;;5014849;28;20456;-73
2021/04/05 12:08:49;;;;;;;2.70;1.17;;;21.10;38.80;;;;;;5011684;28;21022;-73
2021/04/05 12:11:16;;;;;;;2.33;1.25;;;21.10;38.80;;;;;;5022019;28;21033;-74
2021/04/05 12:13:43;;;;;;;3.60;1.00;;;21.10;38.80;;;;;;5027216;28;20471;-73
2021/04/05 12:16:10;;;;;;;1.38;0.90;;;21.20;38.90;;;;;;5014878;28;20415;-77
2021/04/05 12:18:36;;;;;;;3.17;1.50;;;21.20;38.90;;;;;;5018277;28;20431;-74
2021/04/05 12:21:04;;;;;;;5.32;1.45;;;21.30;39.00;;;;;;5022173;28;20509;-74
2021/04/05 12:23:30;;;;;;;3.40;1.10;;;21.30;39.00;;;;;;5032214;28;20488;-74
2021/04/05 12:25:56;;;;;;;3.70;1.20;;;21.30;39.00;;;;;;5021149;28;20464;-74
2021/04/05 12:28:31;;;;;;;4.95;1.50;;;21.30;39.00;;;;;;5027329;28;21064;-73
2021/04/05 12:30:58;;;;;;;3.22;1.20;;;21.30;39.00;;;;;;5016385;28;20938;-69
2021/04/05 12:33:26;;;;;;;3.00;1.30;;;21.30;38.70;;;;;;5031793;28;20414;-74
2021/04/05 12:35:53;;;;;;;3.28;1.05;;;21.30;38.20;;;;;;5014810;28;20813;-75
2021/04/05 12:38:19;;;;;;;5.18;0.90;;;21.30;38.50;;;;;;5022620;28;20561;-75
2021/04/05 12:40:46;;;;;;;3.50;1.20;;;21.30;37.90;;;;;;5024830;28;21356;-75
2021/04/05 12:43:13;;;;;;;1.60;0.80;;;21.40;38.00;;;;;;5026450;28;20426;-71
2021/04/05 12:45:41;;;;;;;3.20;1.20;;;21.40;37.90;;;;;;5018513;28;20434;-73
2021/04/05 12:48:10;;;;;;;3.35;1.10;;;21.50;37.80;;;;;;5017643;28;20426;-74
2021/04/05 12:50:36;;;;;;;3.75;1.20;;;21.50;38.10;;;;;;5017013;28;20408;-74
2021/04/05 12:53:04;;;;;;;1.90;0.95;;;21.50;38.00;;;;;;5021507;28;20435;-75
2021/04/05 12:55:30;;;;;;;3.03;0.93;;;21.50;37.60;;;;;;5026583;28;20465;-73
2021/04/05 12:57:57;;;;;;;2.90;0.90;;;21.60;37.90;;;;;;5018445;28;20430;-74
2021/04/05 13:00:23;;;;;;;1.73;1.30;;;21.60;37.50;;;;;;5012084;28;20495;-75